Ashville, Alabama
Current Conditions -  °F | °C
As of 10:15 AM on Wednesday 22 Oct 2014 (Local Time) from KGAD Reporting Station
Clear Clear  
Wind Chill: 57°   Ceiling: Unl
Heat Index: 57°   Visibility: 10mi
Dew Point: 39°   Wind: 14mph
Humidity: 51%   Direction: 10°N
Pressure: 30.18"   Gusts: NA
Location:  33.84°N, 86.25°W
Report Text: KGAD 221515Z 01012KT 10SM CLR 14/04 A3018 RMK AO1
Loading
Personal Weather Stations






























Interactive Weather Map
Tropical Storm Tracking
New forecast layout! Learn more

10-Day Weather Forecast

Advertisements
Track Severe Weather on mobile